Time,TemperatureF,DewpointF,PressureIn,WindDirection,WindDirectionDegrees,WindSpeedMPH,WindSpeedGustMPH,Humidity,HourlyPrecipIn,Conditions,Clouds,dailyrainin,SoftwareType,DateUTC
2013-02-16 00:03:00,31.5,21.8,25.72,SE,135,4.3,4.3,67,0.00,,---,0.00,VWS V14.01,2013-02-16 06:03:00,
2013-02-16 00:08:00,31.5,21.4,25.72,SSE,158,4.9,4.9,66,0.00,,---,0.00,VWS V14.01,2013-02-16 06:08:00,
2013-02-16 00:13:00,31.8,21.4,25.72,SSE,158,4.3,4.3,65,0.00,,---,0.00,VWS V14.01,2013-02-16 06:13:00,
2013-02-16 00:18:00,31.5,20.7,25.72,SSE,158,2.5,2.5,64,0.00,,---,0.00,VWS V14.01,2013-02-16 06:18:00,
2013-02-16 00:23:00,31.3,20.9,25.72,SE,135,3.6,3.6,65,0.00,,---,0.00,VWS V14.01,2013-02-16 06:23:00,
2013-02-16 00:28:00,31.3,20.9,25.72,South,180,1.3,2.2,65,0.00,,---,0.00,VWS V14.01,2013-02-16 06:28:00,
2013-02-16 00:33:00,30.6,19.9,25.72,South,180,1.3,1.6,64,0.00,,---,0.00,VWS V14.01,2013-02-16 06:33:00,
2013-02-16 00:38:00,30.0,19.0,25.72,South,180,0.0,1.1,63,0.00,,---,0.00,VWS V14.01,2013-02-16 06:38:00,
2013-02-16 00:43:00,28.9,17.6,25.72,South,180,0.0,0.0,62,0.00,,---,0.00,VWS V14.01,2013-02-16 06:43:00,
2013-02-16 00:48:00,28.6,17.6,25.72,SSW,202,0.0,0.0,63,0.00,,---,0.00,VWS V14.01,2013-02-16 06:48:00,
2013-02-16 00:53:00,28.2,17.3,25.72,ENE,68,2.0,2.0,63,0.00,,---,0.00,VWS V14.01,2013-02-16 06:53:00,
2013-02-16 00:58:00,27.5,16.9,25.72,NNW,338,0.0,0.0,64,0.00,,---,0.00,VWS V14.01,2013-02-16 06:58:00,
2013-02-16 01:03:00,27.9,18.0,25.72,SSW,202,1.6,2.0,66,0.00,,---,0.00,VWS V14.01,2013-02-16 07:03:00,
2013-02-16 01:08:00,28.0,20.2,25.72,South,180,2.5,2.9,72,0.00,,---,0.00,VWS V14.01,2013-02-16 07:08:00,
2013-02-16 01:13:00,28.4,20.9,25.72,SSW,202,1.3,2.2,73,0.00,,---,0.00,VWS V14.01,2013-02-16 07:13:00,
2013-02-16 01:18:00,28.6,21.0,25.72,SSW,202,1.6,2.2,73,0.00,,---,0.00,VWS V14.01,2013-02-16 07:18:00,
2013-02-16 01:23:00,28.6,20.4,25.72,SSW,202,2.5,2.5,71,0.00,,---,0.00,VWS V14.01,2013-02-16 07:23:00,
2013-02-16 01:28:00,28.6,20.4,25.72,South,180,3.6,3.6,71,0.00,,---,0.00,VWS V14.01,2013-02-16 07:28:00,
2013-02-16 01:33:00,28.4,19.9,25.69,ESE,112,0.9,1.6,70,0.00,,---,0.00,VWS V14.01,2013-02-16 07:33:00,
2013-02-16 01:38:00,28.0,19.2,25.69,SSE,158,2.5,2.5,69,0.00,,---,0.00,VWS V14.01,2013-02-16 07:38:00,
2013-02-16 01:43:00,28.2,20.0,25.69,South,180,1.6,2.5,71,0.00,,---,0.00,VWS V14.01,2013-02-16 07:43:00,
2013-02-16 01:48:00,28.8,20.6,25.72,South,180,0.0,0.0,71,0.00,,---,0.00,VWS V14.01,2013-02-16 07:48:00,
2013-02-16 01:53:00,29.5,21.2,25.72,South,180,0.0,0.0,71,0.00,,---,0.00,VWS V14.01,2013-02-16 07:53:00,
2013-02-16 01:58:00,29.1,20.6,25.72,South,180,0.0,0.0,70,0.00,,---,0.00,VWS V14.01,2013-02-16 07:58:00,
2013-02-16 02:03:00,28.4,20.2,25.72,SE,135,4.0,4.0,71,0.00,,---,0.00,VWS V14.01,2013-02-16 08:03:00,
2013-02-16 02:08:00,28.4,20.5,25.72,SSE,158,4.9,4.9,72,0.00,,---,0.00,VWS V14.01,2013-02-16 08:08:00,
2013-02-16 02:13:00,28.4,20.2,25.72,SSE,158,3.8,4.0,71,0.00,,---,0.00,VWS V14.01,2013-02-16 08:13:00,
2013-02-16 02:18:00,29.8,21.9,25.72,South,180,4.0,4.0,72,0.00,,---,0.00,VWS V14.01,2013-02-16 08:18:00,
2013-02-16 02:23:00,30.2,21.9,25.72,South,180,0.0,0.0,71,0.00,,---,0.00,VWS V14.01,2013-02-16 08:23:00,
2013-02-16 02:28:00,30.4,21.4,25.72,South,180,2.0,2.2,69,0.00,,---,0.00,VWS V14.01,2013-02-16 08:28:00,
2013-02-16 02:33:00,30.7,21.4,25.75,South,180,2.5,2.5,68,0.00,,---,0.00,VWS V14.01,2013-02-16 08:33:00,
2013-02-16 02:38:00,30.2,20.6,25.75,SE,135,3.8,3.8,67,0.00,,---,0.00,VWS V14.01,2013-02-16 08:38:00,
2013-02-16 02:43:00,29.7,19.0,25.75,SE,135,4.3,5.4,64,0.00,,---,0.00,VWS V14.01,2013-02-16 08:43:00,
2013-02-16 02:48:00,29.7,19.0,25.75,South,180,4.3,4.7,64,0.00,,---,0.00,VWS V14.01,2013-02-16 08:48:00,
2013-02-16 02:53:00,29.5,16.9,25.75,SE,135,4.0,4.7,59,0.00,,---,0.00,VWS V14.01,2013-02-16 08:53:00,
2013-02-16 02:58:00,29.1,16.6,25.75,SE,135,4.9,4.9,59,0.00,,---,0.00,VWS V14.01,2013-02-16 08:58:00,
2013-02-16 03:03:00,29.7,19.4,25.72,SSE,158,4.3,4.3,65,0.00,,---,0.00,VWS V14.01,2013-02-16 09:03:00,
2013-02-16 03:08:00,30.2,19.5,25.72,ESE,112,4.0,4.0,64,0.00,,---,0.00,VWS V14.01,2013-02-16 09:08:00,
2013-02-16 03:13:00,30.2,19.1,25.72,SE,135,4.9,4.9,63,0.00,,---,0.00,VWS V14.01,2013-02-16 09:13:00,
2013-02-16 03:18:00,30.6,19.1,25.72,SSE,158,4.0,4.0,62,0.00,,---,0.00,VWS V14.01,2013-02-16 09:18:00,
2013-02-16 03:23:00,30.4,18.6,25.72,SSE,158,4.7,5.4,61,0.00,,---,0.00,VWS V14.01,2013-02-16 09:23:00,
2013-02-16 03:28:00,31.1,17.7,25.72,SSE,158,5.8,6.5,57,0.00,,---,0.00,VWS V14.01,2013-02-16 09:28:00,
2013-02-16 03:33:00,31.8,18.3,25.72,SSE,158,5.6,5.8,57,0.00,,---,0.00,VWS V14.01,2013-02-16 09:33:00,
2013-02-16 03:38:00,31.6,16.9,25.72,SSW,202,2.2,2.2,54,0.00,,---,0.00,VWS V14.01,2013-02-16 09:38:00,
2013-02-16 03:43:00,30.2,15.6,25.72,South,180,2.0,2.5,54,0.00,,---,0.00,VWS V14.01,2013-02-16 09:43:00,
2013-02-16 03:48:00,30.0,15.8,25.72,South,180,3.8,3.8,55,0.00,,---,0.00,VWS V14.01,2013-02-16 09:48:00,
2013-02-16 03:53:00,31.1,16.8,25.72,SSE,158,4.3,4.9,55,0.00,,---,0.00,VWS V14.01,2013-02-16 09:53:00,
2013-02-16 03:58:00,32.4,17.1,25.72,SSE,158,4.9,5.4,53,0.00,,---,0.00,VWS V14.01,2013-02-16 09:58:00,
2013-02-16 04:03:00,32.7,17.5,25.72,ESE,112,3.6,3.6,53,0.00,,---,0.00,VWS V14.01,2013-02-16 10:03:00,
2013-02-16 04:08:00,31.8,15.8,25.72,ESE,112,4.9,5.8,51,0.00,,---,0.00,VWS V14.01,2013-02-16 10:08:00,
2013-02-16 04:13:00,31.1,15.1,25.72,SE,135,4.0,4.9,51,0.00,,---,0.00,VWS V14.01,2013-02-16 10:13:00,
2013-02-16 04:18:00,30.7,14.8,25.72,SE,135,6.3,6.3,51,0.00,,---,0.00,VWS V14.01,2013-02-16 10:18:00,
2013-02-16 04:23:00,31.5,15.4,25.72,ESE,112,4.3,4.3,51,0.00,,---,0.00,VWS V14.01,2013-02-16 10:23:00,
2013-02-16 04:28:00,31.5,15.4,25.72,ESE,112,4.3,4.3,51,0.00,,---,0.00,VWS V14.01,2013-02-16 10:28:00,
2013-02-16 04:33:00,30.9,14.9,25.72,SE,135,4.3,4.3,51,0.00,,---,0.00,VWS V14.01,2013-02-16 10:33:00,
2013-02-16 04:38:00,31.1,15.5,25.72,South,180,1.6,1.6,52,0.00,,---,0.00,VWS V14.01,2013-02-16 10:38:00,
2013-02-16 04:43:00,31.6,15.6,25.72,South,180,1.6,1.6,51,0.00,,---,0.00,VWS V14.01,2013-02-16 10:43:00,
2013-02-16 04:48:00,32.2,16.1,25.72,South,180,2.0,2.5,51,0.00,,---,0.00,VWS V14.01,2013-02-16 10:48:00,
2013-02-16 04:53:00,32.0,15.5,25.72,South,180,2.7,2.7,50,0.00,,---,0.00,VWS V14.01,2013-02-16 10:53:00,
2013-02-16 04:58:00,31.8,15.3,25.72,South,180,0.9,1.3,50,0.00,,---,0.00,VWS V14.01,2013-02-16 10:58:00,
2013-02-16 05:03:00,30.7,14.3,25.72,SSW,202,2.7,2.7,50,0.00,,---,0.00,VWS V14.01,2013-02-16 11:03:00,
2013-02-16 05:08:00,30.0,14.1,25.72,ESE,112,2.0,2.0,51,0.00,,---,0.00,VWS V14.01,2013-02-16 11:08:00,
2013-02-16 05:13:00,29.7,14.2,25.72,ESE,112,3.1,3.4,52,0.00,,---,0.00,VWS V14.01,2013-02-16 11:13:00,
2013-02-16 05:18:00,29.5,14.0,25.72,SSE,158,0.0,0.9,52,0.00,,---,0.00,VWS V14.01,2013-02-16 11:18:00,
2013-02-16 05:23:00,30.4,14.9,25.72,South,180,2.5,2.5,52,0.00,,---,0.00,VWS V14.01,2013-02-16 11:23:00,
2013-02-16 05:28:00,30.4,14.9,25.72,South,180,0.0,0.0,52,0.00,,---,0.00,VWS V14.01,2013-02-16 11:28:00,
2013-02-16 05:33:00,29.8,14.4,25.72,South,180,0.0,0.0,52,0.00,,---,0.00,VWS V14.01,2013-02-16 11:33:00,
2013-02-16 05:38:00,30.9,15.4,25.72,SSW,202,1.6,2.0,52,0.00,,---,0.00,VWS V14.01,2013-02-16 11:38:00,
2013-02-16 05:43:00,30.9,14.9,25.72,South,180,2.0,2.0,51,0.00,,---,0.00,VWS V14.01,2013-02-16 11:43:00,
2013-02-16 05:48:00,30.9,14.9,25.72,SE,135,3.1,3.6,51,0.00,,---,0.00,VWS V14.01,2013-02-16 11:48:00,
2013-02-16 05:53:00,30.4,14.0,25.72,SE,135,3.1,3.1,50,0.00,,---,0.00,VWS V14.01,2013-02-16 11:53:00,
2013-02-16 05:58:00,29.8,13.9,25.72,SSE,158,3.8,3.8,51,0.00,,---,0.00,VWS V14.01,2013-02-16 11:58:00,
2013-02-16 06:03:00,30.6,14.6,25.72,SSE,158,4.9,4.9,51,0.00,,---,0.00,VWS V14.01,2013-02-16 12:03:00,
2013-02-16 06:08:00,31.3,14.8,25.72,South,180,4.0,4.0,50,0.00,,---,0.00,VWS V14.01,2013-02-16 12:08:00,
2013-02-16 06:13:00,31.3,14.8,25.72,South,180,3.1,3.1,50,0.00,,---,0.00,VWS V14.01,2013-02-16 12:13:00,
2013-02-16 06:18:00,32.2,15.2,25.72,South,180,2.9,3.4,49,0.00,,---,0.00,VWS V14.01,2013-02-16 12:18:00,
2013-02-16 06:23:00,32.5,14.6,25.72,SSE,158,4.3,4.3,47,0.00,,---,0.00,VWS V14.01,2013-02-16 12:23:00,
2013-02-16 06:28:00,33.3,14.7,25.72,SSE,158,3.6,3.6,46,0.00,,---,0.00,VWS V14.01,2013-02-16 12:28:00,
2013-02-16 06:33:00,33.3,14.2,25.72,SSE,158,3.6,4.3,45,0.00,,---,0.00,VWS V14.01,2013-02-16 12:33:00,
2013-02-16 06:38:00,33.3,14.2,25.72,SSE,158,3.8,4.0,45,0.00,,---,0.00,VWS V14.01,2013-02-16 12:38:00,
2013-02-16 06:43:00,32.5,13.6,25.72,South,180,2.5,3.1,45,0.00,,---,0.00,VWS V14.01,2013-02-16 12:43:00,
2013-02-16 06:48:00,32.7,13.7,25.72,SSE,158,4.3,4.5,45,0.00,,---,0.00,VWS V14.01,2013-02-16 12:48:00,
2013-02-16 06:53:00,32.9,13.9,25.72,South,180,4.9,4.9,45,0.00,,---,0.00,VWS V14.01,2013-02-16 12:53:00,
2013-02-16 06:58:00,32.9,13.9,25.72,South,180,5.6,5.8,45,0.00,,---,0.00,VWS V14.01,2013-02-16 12:58:00,
2013-02-16 07:03:00,33.6,14.1,25.72,SSE,158,3.6,4.3,44,0.00,,---,0.00,VWS V14.01,2013-02-16 13:03:00,
2013-02-16 07:08:00,33.4,13.9,25.72,SSE,158,2.9,3.6,44,0.00,,---,0.00,VWS V14.01,2013-02-16 13:08:00,
2013-02-16 07:13:00,33.3,13.7,25.72,SE,135,3.1,3.1,44,0.00,,---,0.00,VWS V14.01,2013-02-16 13:13:00,
2013-02-16 07:18:00,32.5,13.1,25.72,SSE,158,2.9,2.9,44,0.00,,---,0.00,VWS V14.01,2013-02-16 13:18:00,
2013-02-16 07:23:00,31.8,12.9,25.72,SSE,158,4.9,4.9,45,0.00,,---,0.00,VWS V14.01,2013-02-16 13:23:00,
2013-02-16 07:28:00,32.5,13.6,25.72,South,180,3.6,4.5,45,0.00,,---,0.00,VWS V14.01,2013-02-16 13:28:00,
2013-02-16 07:33:00,32.5,13.1,25.72,South,180,1.3,2.0,44,0.00,,---,0.00,VWS V14.01,2013-02-16 13:33:00,
2013-02-16 07:38:00,33.1,13.6,25.72,South,180,4.3,5.4,44,0.00,,---,0.00,VWS V14.01,2013-02-16 13:38:00,
2013-02-16 07:43:00,32.9,13.4,25.72,South,180,4.3,4.3,44,0.00,,---,0.00,VWS V14.01,2013-02-16 13:43:00,
2013-02-16 07:48:00,33.8,13.7,25.72,SSE,158,6.3,6.5,43,0.00,,---,0.00,VWS V14.01,2013-02-16 13:48:00,
2013-02-16 07:53:00,34.9,14.1,25.72,SSE,158,5.4,5.6,42,0.00,,---,0.00,VWS V14.01,2013-02-16 13:53:00,
2013-02-16 07:58:00,35.4,14.6,25.72,SSE,158,5.6,6.3,42,0.00,,---,0.00,VWS V14.01,2013-02-16 13:58:00,
2013-02-16 08:03:00,36.3,14.9,25.72,South,180,5.8,5.8,41,0.00,,---,0.00,VWS V14.01,2013-02-16 14:03:00,
2013-02-16 08:08:00,36.7,15.2,25.72,SE,135,6.5,6.5,41,0.00,,---,0.00,VWS V14.01,2013-02-16 14:08:00,
2013-02-16 08:13:00,37.8,15.6,25.75,SSE,158,5.8,5.8,40,0.00,,---,0.00,VWS V14.01,2013-02-16 14:13:00,
2013-02-16 08:18:00,38.3,16.1,25.75,SSE,158,5.6,5.6,40,0.00,,---,0.00,VWS V14.01,2013-02-16 14:18:00,
2013-02-16 08:23:00,38.7,16.4,25.75,SSE,158,5.4,5.4,40,0.00,,---,0.00,VWS V14.01,2013-02-16 14:23:00,
2013-02-16 08:28:00,39.9,17.0,25.75,SE,135,5.4,5.4,39,0.00,,---,0.00,VWS V14.01,2013-02-16 14:28:00,
2013-02-16 08:33:00,40.6,17.6,25.78,SSE,158,2.9,3.8,39,0.00,,---,0.00,VWS V14.01,2013-02-16 14:33:00,
2013-02-16 08:38:00,41.5,18.4,25.78,SSE,158,4.0,4.0,39,0.00,,---,0.00,VWS V14.01,2013-02-16 14:38:00,
2013-02-16 08:43:00,43.2,19.3,25.78,SSE,158,3.6,3.6,38,0.00,,---,0.00,VWS V14.01,2013-02-16 14:43:00,
2013-02-16 08:48:00,44.4,20.4,25.78,SSE,158,3.1,3.4,38,0.00,,---,0.00,VWS V14.01,2013-02-16 14:48:00,
2013-02-16 08:53:00,45.7,19.6,25.78,SSE,158,4.3,4.3,35,0.00,,---,0.00,VWS V14.01,2013-02-16 14:53:00,
2013-02-16 08:58:00,46.4,19.6,25.78,SSE,158,2.5,2.5,34,0.00,,---,0.00,VWS V14.01,2013-02-16 14:58:00,
2013-02-16 09:03:00,46.9,19.4,25.75,South,180,2.2,2.7,33,0.00,,---,0.00,VWS V14.01,2013-02-16 15:03:00,
2013-02-16 09:08:00,48.0,19.6,25.75,SE,135,3.6,3.6,32,0.00,,---,0.00,VWS V14.01,2013-02-16 15:08:00,
2013-02-16 09:13:00,48.2,18.2,25.75,South,180,2.7,2.7,30,0.00,,---,0.00,VWS V14.01,2013-02-16 15:13:00,
2013-02-16 09:18:00,48.2,18.2,25.78,SW,225,3.1,3.8,30,0.00,,---,0.00,VWS V14.01,2013-02-16 15:18:00,
2013-02-16 09:23:00,48.6,17.0,25.78,SW,225,7.4,7.4,28,0.00,,---,0.00,VWS V14.01,2013-02-16 15:23:00,
2013-02-16 09:28:00,48.7,17.1,25.78,SW,225,6.5,6.5,28,0.00,,---,0.00,VWS V14.01,2013-02-16 15:28:00,
2013-02-16 09:33:00,49.1,17.4,25.78,SSW,202,7.4,9.4,28,0.00,,---,0.00,VWS V14.01,2013-02-16 15:33:00,
2013-02-16 09:38:00,49.1,17.4,25.78,SW,225,5.6,6.5,28,0.00,,---,0.00,VWS V14.01,2013-02-16 15:38:00,
2013-02-16 09:43:00,50.0,17.4,25.78,SW,225,6.5,8.1,27,0.00,,---,0.00,VWS V14.01,2013-02-16 15:43:00,
2013-02-16 09:48:00,51.1,18.3,25.75,WSW,248,8.7,8.7,27,0.00,,---,0.00,VWS V14.01,2013-02-16 15:48:00,
2013-02-16 09:53:00,51.3,18.4,25.75,WSW,248,9.0,9.0,27,0.00,,---,0.00,VWS V14.01,2013-02-16 15:53:00,
2013-02-16 09:58:00,51.6,18.8,25.75,WSW,248,8.7,8.7,27,0.00,,---,0.00,VWS V14.01,2013-02-16 15:58:00,
2013-02-16 10:03:00,51.8,18.0,25.75,SW,225,7.6,7.6,26,0.00,,---,0.00,VWS V14.01,2013-02-16 16:03:00,
2013-02-16 10:08:00,52.0,18.2,25.75,SW,225,10.5,12.3,26,0.00,,---,0.00,VWS V14.01,2013-02-16 16:08:00,
2013-02-16 10:13:00,52.2,18.3,25.75,SW,225,10.7,11.4,26,0.00,,---,0.00,VWS V14.01,2013-02-16 16:13:00,
2013-02-16 10:18:00,52.3,18.5,25.75,SW,225,9.8,12.3,26,0.00,,---,0.00,VWS V14.01,2013-02-16 16:18:00,
2013-02-16 10:23:00,53.2,19.3,25.75,SSW,202,7.8,7.8,26,0.00,,---,0.00,VWS V14.01,2013-02-16 16:23:00,
2013-02-16 10:28:00,53.4,19.4,25.75,SW,225,7.6,9.2,26,0.00,,---,0.00,VWS V14.01,2013-02-16 16:28:00,
2013-02-16 10:33:00,54.7,19.6,25.75,SW,225,1.1,5.8,25,0.00,,---,0.00,VWS V14.01,2013-02-16 16:33:00,
2013-02-16 10:38:00,54.7,19.6,25.75,WSW,248,8.5,8.5,25,0.00,,---,0.00,VWS V14.01,2013-02-16 16:38:00,
2013-02-16 10:43:00,54.3,19.3,25.72,SW,225,12.3,12.5,25,0.00,,---,0.00,VWS V14.01,2013-02-16 16:43:00,
2013-02-16 10:48:00,54.5,19.4,25.72,SW,225,10.3,10.3,25,0.00,,---,0.00,VWS V14.01,2013-02-16 16:48:00,
2013-02-16 10:53:00,54.7,17.6,25.72,SW,225,10.3,10.3,23,0.00,,---,0.00,VWS V14.01,2013-02-16 16:53:00,
2013-02-16 10:58:00,55.0,17.9,25.72,SW,225,5.8,6.3,23,0.00,,---,0.00,VWS V14.01,2013-02-16 16:58:00,
2013-02-16 11:03:00,56.7,18.3,25.72,SSW,202,4.9,4.9,22,0.00,,---,0.00,VWS V14.01,2013-02-16 17:03:00,
2013-02-16 11:08:00,55.9,17.7,25.72,SW,225,3.1,6.0,22,0.00,,---,0.00,VWS V14.01,2013-02-16 17:08:00,
2013-02-16 11:13:00,56.5,18.1,25.75,SSW,202,11.0,11.0,22,0.00,,---,0.00,VWS V14.01,2013-02-16 17:13:00,
2013-02-16 11:18:00,56.7,18.3,25.75,West,270,10.3,10.3,22,0.00,,---,0.00,VWS V14.01,2013-02-16 17:18:00,
2013-02-16 11:23:00,56.8,16.2,25.75,SSW,202,4.7,6.0,20,0.00,,---,0.00,VWS V14.01,2013-02-16 17:23:00,
2013-02-16 11:28:00,57.2,15.3,25.72,SSE,158,4.3,4.3,19,0.00,,---,0.00,VWS V14.01,2013-02-16 17:28:00,
2013-02-16 11:33:00,58.3,16.2,25.72,SW,225,4.9,4.9,19,0.00,,---,0.00,VWS V14.01,2013-02-16 17:33:00,
2013-02-16 11:38:00,58.8,16.7,25.72,WNW,292,4.0,4.0,19,0.00,,---,0.00,VWS V14.01,2013-02-16 17:38:00,
2013-02-16 11:43:00,58.5,16.4,25.72,SW,225,5.4,8.5,19,0.00,,---,0.00,VWS V14.01,2013-02-16 17:43:00,
2013-02-16 11:48:00,61.3,18.8,25.72,West,270,3.4,3.4,19,0.00,,---,0.00,VWS V14.01,2013-02-16 17:48:00,
2013-02-16 11:53:00,59.9,17.6,25.72,SSW,202,7.4,10.1,19,0.00,,---,0.00,VWS V14.01,2013-02-16 17:53:00,
2013-02-16 11:58:00,60.4,18.0,25.72,SSW,202,4.7,7.4,19,0.00,,---,0.00,VWS V14.01,2013-02-16 17:58:00,
2013-02-16 12:03:00,61.2,18.6,25.72,SW,225,8.7,9.6,19,0.00,,---,0.00,VWS V14.01,2013-02-16 18:03:00,
2013-02-16 12:08:00,62.1,19.3,25.72,NNE,22,0.0,1.6,19,0.00,,---,0.00,VWS V14.01,2013-02-16 18:08:00,
2013-02-16 12:13:00,60.4,18.0,25.72,SSW,202,2.7,4.3,19,0.00,,---,0.00,VWS V14.01,2013-02-16 18:13:00,
2013-02-16 12:18:00,63.3,19.1,25.72,West,270,2.9,2.9,18,0.00,,---,0.00,VWS V14.01,2013-02-16 18:18:00,
2013-02-16 12:23:00,59.4,17.1,25.72,West,270,7.8,10.1,19,0.00,,---,0.00,VWS V14.01,2013-02-16 18:23:00,
2013-02-16 12:28:00,59.7,17.4,25.72,South,180,7.4,7.6,19,0.00,,---,0.00,VWS V14.01,2013-02-16 18:28:00,
2013-02-16 12:33:00,60.6,18.2,25.72,SW,225,4.0,4.3,19,0.00,,---,0.00,VWS V14.01,2013-02-16 18:33:00,
2013-02-16 12:38:00,59.5,14.7,25.72,West,270,6.5,7.6,17,0.00,,---,0.00,VWS V14.01,2013-02-16 18:38:00,
2013-02-16 12:43:00,62.1,15.4,25.72,WSW,248,3.6,5.6,16,0.00,,---,0.00,VWS V14.01,2013-02-16 18:43:00,
2013-02-16 12:48:00,60.3,15.3,25.72,SSW,202,5.4,6.5,17,0.00,,---,0.00,VWS V14.01,2013-02-16 18:48:00,
2013-02-16 12:53:00,62.6,15.8,25.72,SW,225,4.0,4.0,16,0.00,,---,0.00,VWS V14.01,2013-02-16 18:53:00,
2013-02-16 12:58:00,61.5,14.9,25.69,WSW,248,3.4,7.8,16,0.00,,---,0.00,VWS V14.01,2013-02-16 18:58:00,
2013-02-16 13:03:00,61.9,15.2,25.69,WSW,248,3.1,4.0,16,0.00,,---,0.00,VWS V14.01,2013-02-16 19:03:00,
2013-02-16 13:08:00,62.1,15.4,25.69,West,270,7.8,7.8,16,0.00,,---,0.00,VWS V14.01,2013-02-16 19:08:00,
2013-02-16 13:13:00,61.2,14.6,25.69,WSW,248,7.4,8.5,16,0.00,,---,0.00,VWS V14.01,2013-02-16 19:13:00,
2013-02-16 13:18:00,60.3,15.3,25.69,West,270,1.1,6.3,17,0.00,,---,0.00,VWS V14.01,2013-02-16 19:18:00,
2013-02-16 13:23:00,60.8,14.4,25.69,SW,225,5.8,8.5,16,0.00,,---,0.00,VWS V14.01,2013-02-16 19:23:00,
2013-02-16 13:28:00,61.7,15.1,25.69,WSW,248,7.6,7.6,16,0.00,,---,0.00,VWS V14.01,2013-02-16 19:28:00,
2013-02-16 13:33:00,60.8,14.4,25.69,WSW,248,12.1,12.1,16,0.00,,---,0.00,VWS V14.01,2013-02-16 19:33:00,
2013-02-16 13:38:00,61.2,14.6,25.69,SSW,202,4.9,5.6,16,0.00,,---,0.00,VWS V14.01,2013-02-16 19:38:00,
2013-02-16 13:43:00,61.3,14.8,25.66,West,270,12.3,12.5,16,0.00,,---,0.00,VWS V14.01,2013-02-16 19:43:00,
2013-02-16 13:48:00,63.9,16.8,25.66,NNW,338,3.6,3.6,16,0.00,,---,0.00,VWS V14.01,2013-02-16 19:48:00,
2013-02-16 13:53:00,62.1,15.4,25.66,SW,225,10.7,11.0,16,0.00,,---,0.00,VWS V14.01,2013-02-16 19:53:00,
2013-02-16 13:58:00,61.3,14.8,25.63,WSW,248,11.0,11.0,16,0.00,,---,0.00,VWS V14.01,2013-02-16 19:58:00,
2013-02-16 14:03:00,61.2,14.6,25.63,SW,225,5.8,7.6,16,0.00,,---,0.00,VWS V14.01,2013-02-16 20:03:00,
2013-02-16 14:08:00,62.2,15.5,25.63,WSW,248,7.6,7.6,16,0.00,,---,0.00,VWS V14.01,2013-02-16 20:08:00,
2013-02-16 14:13:00,61.0,14.5,25.66,SW,225,12.8,12.8,16,0.00,,---,0.00,VWS V14.01,2013-02-16 20:13:00,
2013-02-16 14:18:00,63.0,16.1,25.66,SSW,202,1.6,3.1,16,0.00,,---,0.00,VWS V14.01,2013-02-16 20:18:00,
2013-02-16 14:23:00,64.6,15.9,25.66,SW,225,10.5,10.5,15,0.00,,---,0.00,VWS V14.01,2013-02-16 20:23:00,
2013-02-16 14:28:00,62.4,15.7,25.66,WSW,248,6.0,9.8,16,0.00,,---,0.00,VWS V14.01,2013-02-16 20:28:00,
2013-02-16 14:33:00,62.4,15.7,25.66,WSW,248,5.6,6.0,16,0.00,,---,0.00,VWS V14.01,2013-02-16 20:33:00,
2013-02-16 14:38:00,64.0,17.0,25.66,WNW,292,4.3,8.1,16,0.00,,---,0.00,VWS V14.01,2013-02-16 20:38:00,
2013-02-16 14:43:00,63.1,16.2,25.63,WNW,292,3.8,6.5,16,0.00,,---,0.00,VWS V14.01,2013-02-16 20:43:00,
2013-02-16 14:48:00,63.0,16.1,25.63,SW,225,6.0,8.5,16,0.00,,---,0.00,VWS V14.01,2013-02-16 20:48:00,
2013-02-16 14:53:00,63.1,16.2,25.63,SW,225,5.6,7.8,16,0.00,,---,0.00,VWS V14.01,2013-02-16 20:53:00,
2013-02-16 14:58:00,62.6,15.8,25.63,West,270,7.2,10.5,16,0.00,,---,0.00,VWS V14.01,2013-02-16 20:58:00,
2013-02-16 15:03:00,61.7,15.1,25.63,West,270,10.7,12.3,16,0.00,,---,0.00,VWS V14.01,2013-02-16 21:03:00,
2013-02-16 15:08:00,62.1,15.4,25.63,SW,225,12.1,14.3,16,0.00,,---,0.00,VWS V14.01,2013-02-16 21:08:00,
2013-02-16 15:13:00,61.9,15.2,25.63,WSW,248,8.1,10.1,16,0.00,,---,0.00,VWS V14.01,2013-02-16 21:13:00,
2013-02-16 15:18:00,62.6,15.8,25.60,West,270,9.8,9.8,16,0.00,,---,0.00,VWS V14.01,2013-02-16 21:18:00,
2013-02-16 15:23:00,63.0,16.1,25.60,WSW,248,5.4,9.8,16,0.00,,---,0.00,VWS V14.01,2013-02-16 21:23:00,
2013-02-16 15:28:00,63.0,16.1,25.60,WSW,248,8.1,8.7,16,0.00,,---,0.00,VWS V14.01,2013-02-16 21:28:00,
2013-02-16 15:33:00,63.0,16.1,25.60,SW,225,8.5,8.5,16,0.00,,---,0.00,VWS V14.01,2013-02-16 21:33:00,
2013-02-16 15:38:00,62.2,15.5,25.60,SSW,202,5.8,10.1,16,0.00,,---,0.00,VWS V14.01,2013-02-16 21:38:00,
2013-02-16 15:43:00,61.5,14.9,25.60,SSW,202,5.4,7.8,16,0.00,,---,0.00,VWS V14.01,2013-02-16 21:43:00,
2013-02-16 15:48:00,61.3,14.8,25.60,SSW,202,6.5,6.5,16,0.00,,---,0.00,VWS V14.01,2013-02-16 21:48:00,
2013-02-16 15:53:00,62.1,15.4,25.60,South,180,7.8,8.5,16,0.00,,---,0.00,VWS V14.01,2013-02-16 21:53:00,
2013-02-16 15:58:00,61.5,14.9,25.57,SW,225,10.7,12.8,16,0.00,,---,0.00,VWS V14.01,2013-02-16 21:58:00,
2013-02-16 16:03:00,61.7,15.1,25.57,SW,225,3.4,4.3,16,0.00,,---,0.00,VWS V14.01,2013-02-16 22:03:00,
2013-02-16 16:08:00,61.2,14.6,25.57,SW,225,7.8,12.8,16,0.00,,---,0.00,VWS V14.01,2013-02-16 22:08:00,
2013-02-16 16:13:00,61.5,14.9,25.57,SW,225,5.4,7.8,16,0.00,,---,0.00,VWS V14.01,2013-02-16 22:13:00,
2013-02-16 16:18:00,61.0,14.5,25.60,SW,225,10.1,10.1,16,0.00,,---,0.00,VWS V14.01,2013-02-16 22:18:00,
2013-02-16 16:23:00,61.9,15.2,25.60,SW,225,8.1,8.7,16,0.00,,---,0.00,VWS V14.01,2013-02-16 22:23:00,
2013-02-16 16:28:00,61.0,14.5,25.60,SW,225,10.7,14.8,16,0.00,,---,0.00,VWS V14.01,2013-02-16 22:28:00,
2013-02-16 16:33:00,61.2,14.6,25.60,SW,225,10.1,10.1,16,0.00,,---,0.00,VWS V14.01,2013-02-16 22:33:00,
2013-02-16 16:38:00,61.2,14.6,25.60,SW,225,7.8,10.7,16,0.00,,---,0.00,VWS V14.01,2013-02-16 22:38:00,
2013-02-16 16:43:00,61.2,14.6,25.60,SW,225,10.3,10.5,16,0.00,,---,0.00,VWS V14.01,2013-02-16 22:43:00,
2013-02-16 16:48:00,61.2,14.6,25.60,SW,225,13.2,14.5,16,0.00,,---,0.00,VWS V14.01,2013-02-16 22:48:00,
2013-02-16 16:53:00,61.2,14.6,25.60,SW,225,10.3,10.7,16,0.00,,---,0.00,VWS V14.01,2013-02-16 22:53:00,
2013-02-16 16:58:00,61.3,14.8,25.60,SSW,202,7.8,7.8,16,0.00,,---,0.00,VWS V14.01,2013-02-16 22:58:00,
2013-02-16 17:03:00,61.0,14.5,25.60,SSW,202,6.5,8.1,16,0.00,,---,0.00,VWS V14.01,2013-02-16 23:03:00,
2013-02-16 17:08:00,61.0,14.5,25.60,SSW,202,7.6,7.6,16,0.00,,---,0.00,VWS V14.01,2013-02-16 23:08:00,
2013-02-16 17:13:00,61.0,14.5,25.60,SSW,202,8.1,8.7,16,0.00,,---,0.00,VWS V14.01,2013-02-16 23:13:00,
2013-02-16 17:18:00,60.8,14.4,25.60,SSW,202,9.8,9.8,16,0.00,,---,0.00,VWS V14.01,2013-02-16 23:18:00,
2013-02-16 17:23:00,60.4,15.4,25.60,SSW,202,7.4,8.1,17,0.00,,---,0.00,VWS V14.01,2013-02-16 23:23:00,
2013-02-16 17:28:00,60.4,15.4,25.57,SSW,202,4.9,8.1,17,0.00,,---,0.00,VWS V14.01,2013-02-16 23:28:00,
2013-02-16 17:33:00,59.9,15.0,25.57,SSW,202,10.3,12.3,17,0.00,,---,0.00,VWS V14.01,2013-02-16 23:33:00,
2013-02-16 17:38:00,59.9,15.0,25.57,SSW,202,8.1,8.1,17,0.00,,---,0.00,VWS V14.01,2013-02-16 23:38:00,
2013-02-16 17:43:00,59.9,15.0,25.57,SW,225,10.7,12.3,17,0.00,,---,0.00,VWS V14.01,2013-02-16 23:43:00,
2013-02-16 17:48:00,59.5,14.7,25.57,SSW,202,7.8,8.7,17,0.00,,---,0.00,VWS V14.01,2013-02-16 23:48:00,
2013-02-16 17:53:00,59.2,14.4,25.57,SSW,202,8.5,8.5,17,0.00,,---,0.00,VWS V14.01,2013-02-16 23:53:00,
2013-02-16 17:58:00,58.5,13.8,25.57,SSW,202,8.1,8.1,17,0.00,,---,0.00,VWS V14.01,2013-02-16 23:58:00,
2013-02-16 18:03:00,58.3,13.7,25.57,South,180,5.8,7.6,17,0.00,,---,0.00,VWS V14.01,2013-02-17 00:03:00,
2013-02-16 18:08:00,58.1,13.5,25.57,SSW,202,8.1,8.1,17,0.00,,---,0.00,VWS V14.01,2013-02-17 00:08:00,
2013-02-16 18:13:00,57.7,13.2,25.57,SSE,158,5.6,5.6,17,0.00,,---,0.00,VWS V14.01,2013-02-17 00:13:00,
2013-02-16 18:18:00,57.4,12.9,25.57,SSW,202,5.4,5.6,17,0.00,,---,0.00,VWS V14.01,2013-02-17 00:18:00,
2013-02-16 18:23:00,56.7,12.4,25.57,SSW,202,3.8,4.7,17,0.00,,---,0.00,VWS V14.01,2013-02-17 00:23:00,
2013-02-16 18:28:00,55.9,11.8,25.57,South,180,4.7,6.5,17,0.00,,---,0.00,VWS V14.01,2013-02-17 00:28:00,
2013-02-16 18:33:00,54.3,11.7,25.57,South,180,5.4,7.2,18,0.00,,---,0.00,VWS V14.01,2013-02-17 00:33:00,
2013-02-16 18:38:00,53.6,11.1,25.57,South,180,6.3,8.5,18,0.00,,---,0.00,VWS V14.01,2013-02-17 00:38:00,
2013-02-16 18:43:00,53.1,10.7,25.57,SSW,202,6.0,7.8,18,0.00,,---,0.00,VWS V14.01,2013-02-17 00:43:00,
2013-02-16 18:48:00,52.3,10.1,25.57,South,180,6.5,6.5,18,0.00,,---,0.00,VWS V14.01,2013-02-17 00:48:00,
2013-02-16 18:53:00,52.2,10.0,25.57,South,180,5.8,8.7,18,0.00,,---,0.00,VWS V14.01,2013-02-17 00:53:00,
2013-02-16 18:58:00,51.8,9.7,25.57,SSW,202,7.2,7.4,18,0.00,,---,0.00,VWS V14.01,2013-02-17 00:58:00,
2013-02-16 19:03:00,51.6,10.7,25.57,SSW,202,8.1,8.1,19,0.00,,---,0.00,VWS V14.01,2013-02-17 01:03:00,
2013-02-16 19:08:00,51.4,10.6,25.57,SSW,202,6.0,7.4,19,0.00,,---,0.00,VWS V14.01,2013-02-17 01:08:00,
2013-02-16 19:13:00,50.9,10.1,25.57,SSW,202,5.6,5.6,19,0.00,,---,0.00,VWS V14.01,2013-02-17 01:13:00,
2013-02-16 19:18:00,50.4,9.7,25.57,ESE,112,3.8,5.6,19,0.00,,---,0.00,VWS V14.01,2013-02-17 01:18:00,
2013-02-16 19:23:00,50.5,9.8,25.57,SSW,202,6.3,6.3,19,0.00,,---,0.00,VWS V14.01,2013-02-17 01:23:00,
2013-02-16 19:28:00,50.2,9.5,25.57,SSW,202,5.4,5.4,19,0.00,,---,0.00,VWS V14.01,2013-02-17 01:28:00,
2013-02-16 19:33:00,50.2,9.5,25.57,South,180,5.8,8.7,19,0.00,,---,0.00,VWS V14.01,2013-02-17 01:33:00,
2013-02-16 19:38:00,50.0,9.4,25.57,South,180,9.0,9.0,19,0.00,,---,0.00,VWS V14.01,2013-02-17 01:38:00,
2013-02-16 19:43:00,50.0,9.4,25.57,South,180,5.4,5.8,19,0.00,,---,0.00,VWS V14.01,2013-02-17 01:43:00,
2013-02-16 19:48:00,50.0,9.4,25.57,SSE,158,9.6,9.6,19,0.00,,---,0.00,VWS V14.01,2013-02-17 01:48:00,
2013-02-16 19:53:00,50.0,9.4,25.57,SSW,202,8.1,9.0,19,0.00,,---,0.00,VWS V14.01,2013-02-17 01:53:00,
2013-02-16 19:58:00,49.5,8.9,25.57,South,180,5.6,5.8,19,0.00,,---,0.00,VWS V14.01,2013-02-17 01:58:00,
2013-02-16 20:03:00,49.3,8.8,25.57,South,180,5.6,7.6,19,0.00,,---,0.00,VWS V14.01,2013-02-17 02:03:00,
2013-02-16 20:08:00,49.3,8.8,25.57,SSW,202,6.5,6.5,19,0.00,,---,0.00,VWS V14.01,2013-02-17 02:08:00,
2013-02-16 20:13:00,48.9,8.5,25.60,South,180,5.8,5.8,19,0.00,,---,0.00,VWS V14.01,2013-02-17 02:13:00,
2013-02-16 20:18:00,49.1,8.6,25.60,South,180,4.3,5.8,19,0.00,,---,0.00,VWS V14.01,2013-02-17 02:18:00,
2013-02-16 20:23:00,49.1,8.6,25.60,SSW,202,7.4,8.5,19,0.00,,---,0.00,VWS V14.01,2013-02-17 02:23:00,
2013-02-16 20:28:00,48.7,8.3,25.57,SSW,202,5.6,5.6,19,0.00,,---,0.00,VWS V14.01,2013-02-17 02:28:00,
2013-02-16 20:33:00,48.9,8.5,25.57,South,180,8.7,8.7,19,0.00,,---,0.00,VWS V14.01,2013-02-17 02:33:00,
2013-02-16 20:38:00,48.7,8.3,25.57,SSW,202,6.0,6.0,19,0.00,,---,0.00,VWS V14.01,2013-02-17 02:38:00,
2013-02-16 20:43:00,48.7,8.3,25.60,South,180,7.8,7.8,19,0.00,,---,0.00,VWS V14.01,2013-02-17 02:43:00,
2013-02-16 20:48:00,48.7,8.3,25.60,SSW,202,5.6,5.6,19,0.00,,---,0.00,VWS V14.01,2013-02-17 02:48:00,
2013-02-16 20:53:00,48.4,8.0,25.60,South,180,6.5,6.5,19,0.00,,---,0.00,VWS V14.01,2013-02-17 02:53:00,
2013-02-16 20:58:00,48.2,7.9,25.57,SSW,202,4.9,4.9,19,0.00,,---,0.00,VWS V14.01,2013-02-17 02:58:00,
2013-02-16 21:03:00,48.6,8.2,25.57,SSW,202,5.8,6.0,19,0.00,,---,0.00,VWS V14.01,2013-02-17 03:03:00,
2013-02-16 21:08:00,48.4,8.0,25.57,SSW,202,7.2,7.2,19,0.00,,---,0.00,VWS V14.01,2013-02-17 03:08:00,
2013-02-16 21:13:00,48.2,7.9,25.57,SSW,202,5.4,6.0,19,0.00,,---,0.00,VWS V14.01,2013-02-17 03:13:00,
2013-02-16 21:18:00,47.5,7.3,25.57,SSW,202,4.9,4.9,19,0.00,,---,0.00,VWS V14.01,2013-02-17 03:18:00,
2013-02-16 21:23:00,48.0,7.7,25.57,SSW,202,5.4,5.4,19,0.00,,---,0.00,VWS V14.01,2013-02-17 03:23:00,
2013-02-16 21:28:00,48.7,8.3,25.57,SSW,202,8.1,8.1,19,0.00,,---,0.00,VWS V14.01,2013-02-17 03:28:00,
2013-02-16 21:33:00,48.4,8.0,25.57,SW,225,7.8,7.8,19,0.00,,---,0.00,VWS V14.01,2013-02-17 03:33:00,
2013-02-16 21:38:00,48.4,8.0,25.57,SW,225,9.6,9.6,19,0.00,,---,0.00,VWS V14.01,2013-02-17 03:38:00,
2013-02-16 21:43:00,48.9,8.5,25.57,South,180,8.7,8.7,19,0.00,,---,0.00,VWS V14.01,2013-02-17 03:43:00,
2013-02-16 21:48:00,48.6,8.2,25.57,South,180,4.3,7.2,19,0.00,,---,0.00,VWS V14.01,2013-02-17 03:48:00,
2013-02-16 21:53:00,48.2,7.9,25.57,South,180,5.4,5.4,19,0.00,,---,0.00,VWS V14.01,2013-02-17 03:53:00,
2013-02-16 21:58:00,47.8,7.6,25.57,SSE,158,4.9,4.9,19,0.00,,---,0.00,VWS V14.01,2013-02-17 03:58:00,
2013-02-16 22:03:00,47.5,7.3,25.60,SSW,202,4.0,4.0,19,0.00,,---,0.00,VWS V14.01,2013-02-17 04:03:00,
2013-02-16 22:08:00,46.9,6.8,25.60,South,180,2.9,2.9,19,0.00,,---,0.00,VWS V14.01,2013-02-17 04:08:00,
2013-02-16 22:13:00,47.5,7.3,25.60,SSW,202,4.3,6.3,19,0.00,,---,0.00,VWS V14.01,2013-02-17 04:13:00,
2013-02-16 22:18:00,47.3,7.1,25.57,South,180,4.3,4.3,19,0.00,,---,0.00,VWS V14.01,2013-02-17 04:18:00,
2013-02-16 22:23:00,47.1,7.0,25.57,South,180,5.8,5.8,19,0.00,,---,0.00,VWS V14.01,2013-02-17 04:23:00,
2013-02-16 22:28:00,47.1,7.0,25.60,ESE,112,7.8,7.8,19,0.00,,---,0.00,VWS V14.01,2013-02-17 04:28:00,
2013-02-16 22:33:00,46.2,7.4,25.60,SE,135,6.0,8.5,20,0.00,,---,0.00,VWS V14.01,2013-02-17 04:33:00,
2013-02-16 22:38:00,45.1,6.5,25.60,SE,135,6.3,6.3,20,0.00,,---,0.00,VWS V14.01,2013-02-17 04:38:00,
2013-02-16 22:43:00,44.8,6.2,25.60,SE,135,5.4,5.4,20,0.00,,---,0.00,VWS V14.01,2013-02-17 04:43:00,
2013-02-16 22:48:00,44.6,6.0,25.57,ESE,112,9.4,10.7,20,0.00,,---,0.00,VWS V14.01,2013-02-17 04:48:00,
2013-02-16 22:53:00,44.4,5.9,25.57,ESE,112,7.8,7.8,20,0.00,,---,0.00,VWS V14.01,2013-02-17 04:53:00,
2013-02-16 22:58:00,44.1,5.6,25.60,SSE,158,5.6,6.5,20,0.00,,---,0.00,VWS V14.01,2013-02-17 04:58:00,
2013-02-16 23:00:00,44.1,5.6,25.60,South,180,6.7,7.8,20,0.00,,---,0.00,VWS V14.01,2013-02-17 05:00:00,
2013-02-16 23:05:00,44.1,5.6,25.60,SE,135,6.5,8.5,20,0.00,,---,0.00,VWS V14.01,2013-02-17 05:05:00,
2013-02-16 23:10:00,43.7,5.3,25.60,ESE,112,9.8,9.8,20,0.00,,---,0.00,VWS V14.01,2013-02-17 05:10:00,
2013-02-16 23:15:00,44.1,5.6,25.57,SSE,158,4.9,8.7,20,0.00,,---,0.00,VWS V14.01,2013-02-17 05:15:00,
2013-02-16 23:20:00,43.7,8.3,25.57,ESE,112,7.4,8.5,23,0.00,,---,0.00,VWS V14.01,2013-02-17 05:20:00,
2013-02-16 23:25:00,43.5,8.2,25.57,ESE,112,8.1,8.7,23,0.00,,---,0.00,VWS V14.01,2013-02-17 05:25:00,
2013-02-16 23:30:00,44.2,8.8,25.57,ESE,112,12.3,12.3,23,0.00,,---,0.00,VWS V14.01,2013-02-17 05:30:00,
2013-02-16 23:35:00,44.1,8.6,25.57,South,180,4.7,4.7,23,0.00,,---,0.00,VWS V14.01,2013-02-17 05:35:00,
2013-02-16 23:40:00,44.1,8.6,25.57,SSE,158,8.7,10.3,23,0.00,,---,0.00,VWS V14.01,2013-02-17 05:40:00,
2013-02-16 23:45:00,44.1,8.6,25.57,SSE,158,7.4,7.8,23,0.00,,---,0.00,VWS V14.01,2013-02-17 05:45:00,
2013-02-16 23:50:00,43.9,8.5,25.57,SE,135,9.8,9.8,23,0.00,,---,0.00,VWS V14.01,2013-02-17 05:50:00,
2013-02-16 23:55:00,44.1,8.6,25.57,ESE,112,9.8,9.8,23,0.00,,---,0.00,VWS V14.01,2013-02-17 05:55:00,